Aérodrome :
LOGIN :

S'inscrire | Disclaimer

   EN    FR    IT 

 










Légende :    VFR   VFR Marginal   IFR   IFR Intensif   IFR Très Intensif
Visi : 
Plafond : 
>= 8 km
>= 3000ft
5 à 8 km
1000 à 3000 ft
1500m à 5 km
500 à 1000 ft
800 à 1500m
200 à 500 ft
< 800m
< 200 ft
Symboles :   Orages  Brouillard  Fortes neiges  Fortes précipitations  Vent > 20 kt
SIGMETs :   Divers  Orages  Givrage  Turbulence  Onde Orograph.  Cendres Volcan.






- Altitude de l'aérodrome : 158 ft
- Code IATA : QAR


EHDL - Deelen Airbase

DERNIER METAR :
  • 091055Z AUTO 19009KT 140V250 9999 OVC008 03/02 Q1003 GRN

METARs EXPIRÉS :
  • 091025Z AUTO 18008KT 120V240 9999 BKN008 OVC009 03/02 Q1003 GRN
  • 090955Z AUTO 20009KT 130V240 9999 OVC007 02/01 Q1003 GRN
  • 090925Z AUTO 19009KT 130V240 9999 FEW007 SCT008 OVC019 02/01 Q1003 GRN
  • 090855Z AUTO 19009KT 140V260 9999 BKN017 02/01 Q1002 WHT
  • 090825Z AUTO 17007KT 130V210 9999 NCD 01/00 Q1002 BLU

TAF TAF EHDL
Valide du 09 à 10h jusqu'au 09 à 22h UTC


090926Z 0910/0922 19008KT 9999 SCT010 BKN020
TEMPO 0910/0918 SCT007 BKN012
BECMG 0918/0920 FEW015 BKN025



MET'MAP, la Météo Aéronautique d'un coup d'oeil ! - Copyright ORBIFLY Décembre 2007 - Disclaimer

ORBIFLY MET'MAP TEAM :

Programmation & Développement : Alexandra Zaïnal
Sur une idée originale de : Baudouin d'Aumeries
Assistance à la programmation : Marc-Olivier Méhu
Soutien technique & logistique : Manuel Goepfert

Contact : metmap@orbifly.com




SOURCES & CREDITS :

   NOAA